ESSP/NRK METAR and TAF weather

Enter ICAO airport designator
Station Type Date Time Source
ESSP METAR 2021/09/16 20:50 UTC NOAA

ESSP 162050Z AUTO 05014KT 9999 BKN021/// OVC033/// 10/08 Q1015


Station Type Date Time Source
ESSP Decoded METAR 2021/09/16 20:50 UTC NOAA

Norrkoping, Sweden (ESSP) 58-35N 016-09E 0M
Sep 16, 2021 - 04:50 PM EDT / 2021.09.16 2050 UTC
Wind: from the NE (050 degrees) at 16 MPH (14 KT):0
Visibility: greater than 7 mile(s):0
Sky conditions: overcast
Temperature: 50 F (10 C)
Dew Point: 46 F (8 C)
Relative Humidity: 87%
Pressure (altimeter): 29.97 in. Hg (1015 hPa)
ob: ESSP 162050Z AUTO 05014KT 9999 BKN021/// OVC033/// 10/08 Q1015
cycle: 21

Station Type Date Time Source
ESSP TAF 2018/01/01 02:31 UTC NOAA

TAF ESSP 010130Z 0102/0206 16002KT 9999 BKN004 PROB40 0102/0106 4000 BR SCT004

Example: see airport list